Flight Track Log - Related Links

Times and Time Zones

All times are in EST time to prevent confusion due to time zone crossing. See the FSR411 flight status page for this flight to view local times or setup timezone preferences in your user account.

Time Position Orientation Groundspeed Altitude Reporting Facility
EST Latitude Longitude Course Direction KTS MPH feet Rate Location/Type
Wed 11:54:50 AM 40.0553 -88.3022 270° West 151 174 43,000  Level Chicago Center
Wed 11:55:52 AM 40.0533 -88.3775 268° West 235 270 4,200 -17,415 Descending Chicago Center
Wed 11:56:53 AM 40.0544 -88.4683 271° West 250 288 7,300 3,171 Climbing Chicago Center
Wed 11:57:55 AM 40.0519 -88.5644 268° West 259 298 10,700 3,707 Climbing Chicago Center
Wed 11:58:56 AM 40.0492 -88.6942 268° West 290 334 14,900 3,836 Climbing Chicago Center
Wed 11:59:57 AM 40.0464 -88.8164 268° West 333 383 18,500 3,366 Climbing Chicago Center
Wed 12:00:00 PM 40.0167 -88.9296 270° West  Level FlightAware Approximate
Wed 12:00:59 PM 40.0436 -88.9411 268° West 344 396 21,800  Level Chicago Center
Wed 12:02:00 PM 40.0406 -89.0772 268° West 370 426 23,100 2,293 Climbing Chicago Center
Wed 12:03:02 PM 40.0372 -89.2103 268° West 369 425 26,500 2,829 Climbing Chicago Center
Wed 12:04:03 PM 40.0336 -89.3403 268° West 360 414 28,900 2,769 Climbing Chicago Center
Wed 12:04:33 PM 40.0300 -89.4183 267° West 359 413 30,700 2,967 Climbing Kansas City Center
Wed 12:05:34 PM 40.0264 -89.5408 268° West 340 391 33,400 1,610 Climbing Kansas City Center
Wed 12:06:36 PM 40.0236 -89.6569 268° West 330 380 34,000 293 Climbing Kansas City Center
Wed 12:07:37 PM 40.0197 -89.7769 268° West 329 379 34,000 390 Level Kansas City Center
Wed 12:08:39 PM 40.0164 -89.8986 268° West 331 381 34,800 1,113 Climbing Kansas City Center
Wed 12:09:41 PM 40.0114 -90.0189 267° West 332 382 36,300 1,268 Climbing Kansas City Center
Wed 12:10:42 PM 40.0078 -90.1386 268° West 331 381 37,400 1,024 Climbing Kansas City Center
Wed 12:11:44 PM 40.0039 -90.2578 268° West 330 380 38,400 919 Climbing Kansas City Center
Wed 12:12:46 PM 40.0000 -90.3789 268° West 331 381 39,300 927 Climbing Kansas City Center
Wed 12:13:47 PM 39.9956 -90.4989 267° West 332 382 40,300 927 Climbing Kansas City Center
Wed 12:14:49 PM 39.9897 -90.6414 267° West 329 379 41,200 774 Climbing Kansas City Center
Wed 12:15:51 PM 39.9858 -90.7583 268° West 325 374 41,900 683 Climbing Kansas City Center
Wed 12:16:52 PM 39.9806 -90.8728 267° West 319 367 42,600 537 Climbing Kansas City Center
Wed 12:17:54 PM 39.9750 -90.9981 267° West 320 368 43,000 195 Climbing Kansas City Center
Wed 12:18:55 PM 39.9703 -91.1156 267° West 324 373 43,000  Level Kansas City Center
Wed 12:19:57 PM 39.9653 -91.2369 267° West 332 382 43,000  Level Kansas City Center
Wed 12:20:59 PM 39.9592 -91.3589 266° West 338 389 43,000  Level Kansas City Center
Wed 12:22:00 PM 39.9539 -91.4814 267° West 340 391 43,000  Level Kansas City Center
Wed 12:23:02 PM 39.9492 -91.6019 267° West 337 388 43,000  Level Kansas City Center
Wed 12:24:04 PM 39.9428 -91.7222 266° West 334 384 43,000  Level Kansas City Center
Wed 12:25:05 PM 39.9364 -91.8664 267° West 332 382 43,000  Level Kansas City Center
Wed 12:26:07 PM 39.9306 -91.9833 266° West 329 379 43,000  Level Kansas City Center
Wed 12:27:08 PM 39.9242 -92.1011 266° West 326 375 43,000  Level Kansas City Center
Wed 12:28:10 PM 39.9186 -92.2167 266° West 322 371 43,000  Level Kansas City Center
Wed 12:29:12 PM 39.9128 -92.3317 266° West 320 368 43,000  Level Kansas City Center
Wed 12:30:13 PM 39.9067 -92.4475 266° West 320 368 43,000  Level Kansas City Center
Wed 12:31:15 PM 39.9000 -92.5631 266° West 319 367 43,000  Level Kansas City Center
Wed 12:32:16 PM 39.8933 -92.6800 266° West 322 371 43,000  Level Kansas City Center
Wed 12:33:18 PM 39.8867 -92.7956 266° West 320 368 43,000  Level Kansas City Center
Wed 12:34:20 PM 39.8800 -92.9350 266° West 322 371 43,000  Level Kansas City Center
Wed 12:35:21 PM 39.8731 -93.0511 266° West 322 371 43,000  Level Kansas City Center
Wed 12:36:23 PM 39.8653 -93.1678 265° West 323 372 43,000  Level Kansas City Center
Wed 12:37:24 PM 39.8589 -93.2847 266° West 324 373 43,000  Level Kansas City Center
Wed 12:38:26 PM 39.8519 -93.4022 266° West 326 375 43,000  Level Kansas City Center
Wed 12:39:27 PM 39.8431 -93.5186 264° West 325 374 43,000  Level Kansas City Center
Wed 12:40:29 PM 39.8353 -93.6350 265° West 325 374 43,000  Level Kansas City Center
Wed 12:41:30 PM 39.8286 -93.7528 266° West 327 376 43,000  Level Kansas City Center
Wed 12:42:32 PM 39.8189 -93.8933 265° West 326 375 43,000  Level Kansas City Center
Wed 12:43:33 PM 39.8117 -94.0094 265° West 324 373 43,000  Level Kansas City Center
Wed 12:44:35 PM 39.8033 -94.1219 265° West 321 369 43,000  Level Kansas City Center
Wed 12:45:37 PM 39.7939 -94.2519 265° West 324 373 43,000  Level Kansas City Center
Wed 12:46:38 PM 39.7869 -94.3650 265° West 327 376 43,000  Level Kansas City Center
Wed 12:47:40 PM 39.7792 -94.4764 265° West 324 373 43,000  Level Kansas City Center
Wed 12:48:41 PM 39.7686 -94.6089 264° West 330 380 43,000  Level Kansas City Center
Wed 12:49:43 PM 39.7617 -94.7217 265° West 327 376 43,000  Level Kansas City Center
Wed 12:50:45 PM 39.7517 -94.8508 264° West 323 372 43,000  Level Kansas City Center
Wed 12:51:46 PM 39.7428 -94.9628 264° West 326 375 43,000  Level Kansas City Center
Wed 12:52:48 PM 39.7333 -95.0939 265° West 327 376 43,000  Level Kansas City Center
Wed 12:53:49 PM 39.7244 -95.2053 264° West 327 376 43,000  Level Kansas City Center
Wed 12:54:51 PM 39.7147 -95.3358 265° West 326 375 43,000  Level Kansas City Center
Wed 12:55:53 PM 39.7056 -95.4475 264° West 326 375 43,000  Level Kansas City Center
Wed 12:56:55 PM 39.6961 -95.5583 264° West 324 373 43,000  Level Kansas City Center
Wed 12:57:56 PM 39.6861 -95.6869 264° West 323 372 43,000  Level Kansas City Center
Wed 12:58:58 PM 39.6764 -95.7958 263° West 319 367 43,000  Level Kansas City Center
Wed 12:59:59 PM 39.6658 -95.9256 264° West 323 372 43,000  Level Kansas City Center
Wed 01:02:03 PM 39.6456 -96.1636 260° West 322 371 43,000  Level Kansas City Center
Wed 01:03:05 PM 39.6361 -96.2725 264° West 318 366 43,000  Level Kansas City Center
Wed 01:04:06 PM 39.6278 -96.3828 264° West 321 369 43,000 98 Level Kansas City Center
Wed 01:05:08 PM 39.6153 -96.5128 263° West 327 376 43,200 290 Climbing Kansas City Center
Wed 01:06:10 PM 39.6053 -96.6256 263° West 330 380 43,600 488 Climbing Kansas City Center
Wed 01:07:11 PM 39.5925 -96.7586 263° West 332 382 44,200 488 Climbing Kansas City Center
Wed 01:08:13 PM 39.5817 -96.8700 263° West 327 376 44,600 387 Climbing Kansas City Center
Wed 01:09:15 PM 39.5708 -97.0000 264° West 325 374 45,000 194 Climbing Kansas City Center
Wed 01:10:17 PM 39.5597 -97.1133 263° West 330 380 45,000  Level Kansas City Center
Wed 01:11:18 PM 39.5492 -97.2294 263° West 333 383 45,000  Level Kansas City Center
Wed 01:12:20 PM 39.5375 -97.3503 263° West 335 386 45,000  Level Kansas City Center
Wed 01:13:22 PM 39.5231 -97.4969 263° West 340 391 45,000  Level Kansas City Center
Wed 01:14:24 PM 39.5108 -97.6175 263° West 338 389 45,000  Level Kansas City Center
Wed 01:15:26 PM 39.4989 -97.7361 263° West 335 386 45,000  Level Kansas City Center
Wed 01:16:28 PM 39.4869 -97.8550 263° West 332 382 45,000  Level Kansas City Center
Wed 01:17:29 PM 39.4756 -97.9694 263° West 325 374 45,000  Level Kansas City Center
Wed 01:18:31 PM 39.4628 -98.0986 263° West 325 374 45,000  Level Kansas City Center
Wed 01:19:33 PM 39.4489 -98.2244 262° West 327 376 45,000  Level Kansas City Center
Wed 01:20:35 PM 39.4358 -98.3453 262° West 329 379 45,000  Level Kansas City Center
Wed 01:21:37 PM 39.4239 -98.4617 262° West 327 376 45,000  Level Kansas City Center
Wed 01:22:39 PM 39.4131 -98.5653 262° West 329 379 45,000  Level Kansas City Center
Wed 01:23:41 PM 39.3975 -98.6989 261° West 337 388 45,000  Level Kansas City Center
Wed 01:24:39 PM 39.3847 -98.8239 263° West 346 398 45,000  Level Denver Center
Wed 01:25:41 PM 39.3711 -98.9478 262° West 349 402 45,000  Level Denver Center
Wed 01:26:43 PM 39.3561 -99.0850 262° West 357 411 45,000  Level Denver Center
Wed 01:27:45 PM 39.3422 -99.2058 262° West 355 409 45,000  Level Denver Center
Wed 01:28:47 PM 39.3261 -99.3461 262° West 354 407 45,000  Level Denver Center
Wed 01:29:49 PM 39.3128 -99.4683 262° West 356 410 45,000  Level Denver Center
Wed 01:30:51 PM 39.2983 -99.5892 261° West 356 410 45,000  Level Denver Center
Wed 01:31:52 PM 39.2836 -99.7106 261° West 356 410 45,000  Level Denver Center
Wed 01:32:54 PM 39.2675 -99.8517 262° West 356 410 45,000  Level Denver Center
Wed 01:33:56 PM 39.2503 -99.9922 261° West 355 409 45,000  Level Denver Center
Wed 01:34:58 PM 39.2353 -100.1133 261° West 356 410 45,000  Level Denver Center
Wed 01:36:00 PM 39.2178 -100.2567 261° West 361 415 45,000  Level Denver Center
Wed 01:37:02 PM 39.2033 -100.3781 261° West 360 414 45,000  Level Denver Center
Wed 01:38:03 PM 39.1858 -100.5167 261° West 352 405 45,000  Level Denver Center
Wed 01:39:05 PM 39.1703 -100.6383 261° West 357 411 45,000  Level Denver Center
Wed 01:40:07 PM 39.1550 -100.7606 261° West 359 413 45,000  Level Denver Center
Wed 01:41:09 PM 39.1389 -100.8822 260° West 359 413 45,000  Level Denver Center
Wed 01:42:10 PM 39.1228 -101.0028 260° West 357 411 45,000  Level Denver Center
Wed 01:43:12 PM 39.1017 -101.1681 261° West 362 417 45,000  Level Denver Center
Wed 01:44:14 PM 39.0861 -101.2903 261° West 362 417 45,000  Level Denver Center
Wed 01:45:16 PM 39.0672 -101.4336 260° West 364 419 45,000  Level Denver Center
Wed 01:46:18 PM 39.0506 -101.5575 260° West 366 421 45,000  Level Denver Center
Wed 01:47:20 PM 39.0322 -101.6944 260° West 361 415 45,000  Level Denver Center
Wed 01:48:21 PM 39.0147 -101.8175 260° West 366 421 45,000  Level Denver Center
Wed 01:49:23 PM 38.9950 -101.9608 260° West 364 419 45,000  Level Denver Center
Wed 01:50:25 PM 38.9781 -102.0822 260° West 364 419 45,000  Level Denver Center
Wed 01:51:27 PM 38.9608 -102.2042 260° West 363 418 45,000  Level Denver Center
Wed 01:52:29 PM 38.9408 -102.3450 260° West 359 413 45,000  Level Denver Center
Wed 01:53:30 PM 38.9244 -102.4669 260° West 360 414 45,000  Level Denver Center
Wed 01:54:32 PM 38.9028 -102.6097 259° West 364 419 45,000  Level Denver Center
Wed 01:55:34 PM 38.8853 -102.7306 259° West 362 417 45,000  Level Denver Center
Wed 01:56:36 PM 38.8681 -102.8561 260° West 364 419 45,000  Level Denver Center
Wed 01:57:38 PM 38.8456 -103.0072 259° West 362 417 45,000  Level Denver Center
Wed 01:58:40 PM 38.8264 -103.1342 259° West 363 418 45,000  Level Denver Center
Wed 01:59:42 PM 38.8081 -103.2594 259° West 360 414 45,000  Level Denver Center
Wed 02:00:44 PM 38.7894 -103.3858 259° West 361 415 45,000  Level Denver Center
Wed 02:01:46 PM 38.7694 -103.5203 259° West 365 420 45,000  Level Denver Center
Wed 02:02:48 PM 38.7500 -103.6417 258° West 364 419 45,000  Level Denver Center
Wed 02:03:50 PM 38.7283 -103.7839 259° West 365 420 45,000  Level Denver Center
Wed 02:04:52 PM 38.7092 -103.9075 259° West 366 421 45,000  Level Denver Center
Wed 02:05:53 PM 38.6867 -104.0494 259° West 366 421 45,000  Level Denver Center
Wed 02:06:55 PM 38.6669 -104.1789 259° West 366 421 45,000  Level Denver Center
Wed 02:07:57 PM 38.6464 -104.3064 258° West 366 421 45,000  Level Denver Center
Wed 02:08:59 PM 38.6261 -104.4361 259° West 370 426 45,000  Level Denver Center
Wed 02:10:01 PM 38.6050 -104.5619 258° West 364 419 45,000  Level Denver Center
Wed 02:11:03 PM 38.5850 -104.6900 259° West 366 421 45,000  Level Denver Center
Wed 02:12:05 PM 38.5600 -104.8428 258° West 366 421 45,000  Level Denver Center
Wed 02:13:07 PM 38.5383 -104.9717 258° West 368 423 45,000  Level Denver Center
Wed 02:14:09 PM 38.5172 -105.0992 258° West 367 422 45,000  Level Denver Center
Wed 02:15:11 PM 38.4964 -105.2283 258° West 370 426 45,000  Level Denver Center
Wed 02:16:13 PM 38.4736 -105.3572 257° West 372 428 45,000  Level Denver Center
Wed 02:17:15 PM 38.4522 -105.4875 258° West 372 428 45,000  Level Denver Center
Wed 02:18:17 PM 38.4256 -105.6422 258° West 374 430 45,000  Level Denver Center
Wed 02:19:19 PM 38.4031 -105.7725 258° West 376 433 45,000  Level Denver Center
Wed 02:20:21 PM 38.3819 -105.8931 257° West 375 432 45,000  Level Denver Center
Wed 02:21:23 PM 38.3561 -106.0381 257° West 375 432 45,000  Level Denver Center
Wed 02:22:25 PM 38.3336 -106.1697 258° West 378 435 45,000  Level Denver Center
Wed 02:23:27 PM 38.3094 -106.3017 257° West 380 437 45,000  Level Denver Center
Wed 02:24:29 PM 38.2858 -106.4339 257° West 381 438 45,000  Level Denver Center
Wed 02:25:31 PM 38.2611 -106.5733 257° West 382 440 45,000  Level Denver Center
Wed 02:26:33 PM 38.2333 -106.7219 257° West 385 443 45,000  Level Denver Center
Wed 02:27:35 PM 38.2106 -106.8469 257° West 381 438 45,000  Level Denver Center
Wed 02:28:36 PM 38.1886 -106.9639 257° West 383 441 45,000  Level Denver Center
Wed 02:29:38 PM 38.1594 -107.1250 257° West 387 445 45,000  Level Denver Center
Wed 02:30:40 PM 38.1361 -107.2494 257° West 384 442 45,000  Level Denver Center
Wed 02:31:42 PM 38.1086 -107.3967 257° West 384 442 45,000  Level Denver Center
Wed 02:32:44 PM 38.0842 -107.5231 256° West 385 443 45,000  Level Denver Center
Wed 02:33:46 PM 38.0575 -107.6672 257° West 384 442 45,000  Level Denver Center
Wed 02:34:48 PM 38.0328 -107.7936 256° West 385 443 45,000  Level Denver Center
Wed 02:35:50 PM 38.0044 -107.9419 256° West 387 445 45,000  Level Denver Center
Wed 02:36:52 PM 37.9797 -108.0683 256° West 387 445 45,000  Level Denver Center
Wed 02:37:53 PM 37.9511 -108.2158 256° West 386 444 45,000  Level Denver Center
Wed 02:38:55 PM 37.9261 -108.3428 256° West 388 447 45,000  Level Denver Center
Wed 02:39:57 PM 37.8972 -108.4892 256° West 386 444 45,000  Level Denver Center
Wed 02:40:59 PM 37.8717 -108.6147 256° West 385 443 45,000  Level Denver Center
Wed 02:42:01 PM 37.8461 -108.7419 256° West 388 447 45,000  Level Denver Center
Wed 02:43:03 PM 37.8169 -108.8914 256° West 390 449 45,000  Level Denver Center
Wed 02:44:04 PM 37.7878 -109.0161 254° West 388 447 45,000  Level Denver Center
Wed 02:45:06 PM 37.7517 -109.1639 253° West 395 455 45,000 -290 Level Denver Center
Wed 02:46:08 PM 37.7194 -109.2883 252° West 391 450 44,400 -919 Descending Denver Center
Wed 02:47:10 PM 37.6839 -109.4339 253° West 389 448 43,100 -1,161 Descending Denver Center
Wed 02:48:12 PM 37.6519 -109.5617 253° West 396 456 42,000 -1,220 Descending Denver Center
Wed 02:49:13 PM 37.6139 -109.7100 252° West 399 459 40,600 -1,171 Descending Denver Center
Wed 02:50:15 PM 37.5875 -109.8147 252° West 395 455 39,600 -1,016 Descending Denver Center
Wed 02:51:17 PM 37.5514 -109.9561 252° West 383 441 38,500 -968 Descending Denver Center
Wed 02:52:19 PM 37.5167 -110.0936 252° West 372 428 37,600 -927 Descending Denver Center
Wed 02:53:20 PM 37.4806 -110.2306 252° West 378 435 36,600 -732 Descending Denver Center
Wed 02:54:22 PM 37.4467 -110.3586 252° West 385 443 36,100 -290 Descending Denver Center
Wed 02:55:24 PM 37.4142 -110.4858 252° West 383 441 36,000 -387 Descending Denver Center
Wed 02:56:26 PM 37.3806 -110.6139 252° West 385 443 35,300 -829 Descending Denver Center
Wed 02:57:27 PM 37.3472 -110.7411 252° West 384 442 34,300 -976 Descending Denver Center
Wed 02:58:29 PM 37.3139 -110.8689 252° West 385 443 33,300 -919 Descending Denver Center
Wed 02:59:31 PM 37.2800 -110.9961 252° West 384 442 32,400 -629 Descending Denver Center
Wed 03:00:33 PM 37.2383 -111.1483 251° West 384 442 32,000 -194 Descending Denver Center
Wed 03:01:35 PM 37.2044 -111.2756 252° West 384 442 32,000  Level Denver Center
Wed 03:02:36 PM 37.1708 -111.4017 252° West 381 438 32,000  Level Denver Center
Wed 03:03:38 PM 37.1411 -111.5344 254° West 393 452 32,000  Level Denver Center
Wed 03:04:40 PM 37.1136 -111.6722 256° West 403 464 32,000  Level Denver Center
Wed 03:05:42 PM 37.0847 -111.8119 256° West 411 473 32,000  Level Denver Center
Wed 03:06:44 PM 37.0564 -111.9519 256° West 413 475 32,000  Level Denver Center
Wed 03:07:45 PM 37.0189 -112.1217 255° West 419 482 32,000  Level Denver Center
Wed 03:08:15 PM 37.0028 -112.1794 251° West 421 484 32,000  Level Los Angeles Center
Wed 03:09:17 PM 36.9736 -112.3203 256° West 419 482 32,000  Level Los Angeles Center
Wed 03:10:19 PM 36.9422 -112.4625 255° West 422 486 32,000  Level Los Angeles Center
Wed 03:11:22 PM 36.9114 -112.6039 255° West 421 484 32,000  Level Los Angeles Center
Wed 03:12:24 PM 36.8736 -112.7744 255° West 423 487 32,000  Level Los Angeles Center
Wed 03:13:26 PM 36.8425 -112.9158 255° West 423 487 32,000  Level Los Angeles Center
Wed 03:14:28 PM 36.8103 -113.0586 254° West 426 490 32,000 -194 Level Los Angeles Center
Wed 03:15:30 PM 36.7778 -113.2014 254° West 428 493 31,600 -1,210 Descending Los Angeles Center
Wed 03:16:32 PM 36.7469 -113.3389 254° West 416 479 29,500 -2,064 Descending Los Angeles Center
Wed 03:17:35 PM 36.7150 -113.4772 254° West 416 479 27,300 -2,352 Descending Los Angeles Center
Wed 03:18:37 PM 36.6767 -113.6475 254° West 423 487 24,600 -2,371 Descending Los Angeles Center
Wed 03:19:39 PM 36.6458 -113.7847 254° West 417 480 22,400 -2,129 Descending Los Angeles Center
Wed 03:20:41 PM 36.6103 -113.9139 251° West 403 464 20,200 -2,129 Descending Los Angeles Center
Wed 03:21:43 PM 36.5628 -114.0294 243° Southwest 384 442 18,000 -2,081 Descending Los Angeles Center
Wed 03:22:45 PM 36.5222 -114.1389 245° Southwest 359 413 15,900 -2,296 Descending Los Angeles Center
Wed 03:23:04 PM 36.5064 -114.1897 249° West 348 400 14,900 -1,920 Descending Los Angeles Center
Wed 03:24:00 PM 36.4739 -114.2625 241° Southwest 335 386 13,500 -1,780 Descending Los Angeles Center
Wed 03:24:35 PM 36.4475 -114.3414 247° West 317 365 12,200 -1,452 Descending Los Angeles Center
Wed 03:25:02 PM 36.4306 -114.3800 241° Southwest 314 361 12,000 -197 Descending Los Angeles Center
Wed 03:25:36 PM 36.4122 -114.4364 248° West 299 344 12,000 -97 Level Los Angeles Center
Wed 03:26:04 PM 36.3947 -114.4703 237° Southwest 297 342 11,900 -787 Descending Los Angeles Center
Wed 03:26:37 PM 36.3522 -114.4969 207° Southwest 302 348 11,200 -871 Descending Los Angeles Center
Wed 03:27:06 PM 36.3150 -114.5036 188° South 304 350 11,000 -197 Descending Los Angeles Center
Wed 03:27:38 PM 36.2700 -114.5167 193° South 297 342 11,000 -476 Level Los Angeles Center
Wed 03:28:09 PM 36.2406 -114.5397 212° Southwest 297 342 10,500 -1,527 Descending Los Angeles Center
Wed 03:28:33 PM 36.2167 -114.5778 232° Southwest 284 327 9,600 -1,355 Descending Los Angeles Center
Wed 03:29:11 PM 36.1897 -114.6128 226° Southwest 279 321 9,100 -900 Descending Los Angeles Center
Wed 03:29:33 PM 36.1692 -114.6469 233° Southwest 265 305 8,700 -968 Descending Los Angeles Center
Wed 03:30:13 PM 36.1578 -114.6886 251° West 262 302 8,100 -689 Descending Los Angeles Center
Wed 03:30:34 PM 36.1531 -114.7297 262° West 230 265 8,000 -774 Descending Los Angeles Center
Wed 03:31:15 PM 36.1428 -114.7758 255° West 229 264 7,300 -1,279 Descending Los Angeles Center
Wed 03:31:35 PM 36.1411 -114.8031 266° West 213 245 6,700 -1,645 Descending Los Angeles Center
Wed 03:32:17 PM 36.1378 -114.8506 265° West 221 254 5,600 -1,636 Descending Los Angeles Center
Wed 03:32:30 PM 36.1392 -114.8731 274° West 222 255 5,200 -1,297 Descending Los Angeles Center
Wed 03:33:31 PM 36.1342 -114.9492 265° West 222 255 4,000 -703 Descending Los Angeles Center
Wed 03:34:21 PM 36.1333 -115.0067 269° West 202 232 3,900 -200 Descending Los Angeles Center
Wed 03:34:31 PM 36.1336 -115.0161 272° West 189 217 3,800 -581 Descending Los Angeles Center
Wed 03:35:23 PM 36.1347 -115.0667 272° West 178 205 3,300 -655 Descending Los Angeles Center
Wed 03:35:26 PM 36.1350 -115.0717 274° West 180 207 3,200 -387 Descending Los Angeles Center
Wed 03:36:25 PM 36.1342 -115.1294 269° West 170 196 2,900 -358 Descending Los Angeles Center
Wed 03:36:33 PM 36.1308 -115.1317 208° Southwest 158 182 2,800 -667 Descending Los Angeles Center
Wed 03:37:28 PM 36.0994 -115.1525 208° Southwest 142 163 2,200 -655 Descending Los Angeles Center
Wed 03:39:00 PM 36.0801 -115.1523 219° Southwest  Level Estimated

Login

Don't have an account? Register now (free) for customized features, flight alerts, and more!